sensor_id;sensor_type;location;lat;lon;timestamp;P1;durP1;ratioP1;P2;durP2;ratioP2
13208;SDS011;6669;42.678;23.332;2022-12-18T00:01:29;3.77;;;2.93;;
13208;SDS011;6669;42.678;23.332;2022-12-18T00:04:00;3.47;;;2.73;;
13208;SDS011;6669;42.678;23.332;2022-12-18T00:06:30;3.97;;;3.00;;
13208;SDS011;6669;42.678;23.332;2022-12-18T00:08:59;3.87;;;3.37;;
13208;SDS011;6669;42.678;23.332;2022-12-18T00:11:29;3.23;;;2.93;;
13208;SDS011;6669;42.678;23.332;2022-12-18T00:13:59;3.93;;;3.40;;
13208;SDS011;6669;42.678;23.332;2022-12-18T00:16:28;3.10;;;2.70;;
13208;SDS011;6669;42.678;23.332;2022-12-18T00:18:59;3.00;;;2.53;;
13208;SDS011;6669;42.678;23.332;2022-12-18T00:21:28;4.80;;;3.03;;
13208;SDS011;6669;42.678;23.332;2022-12-18T00:23:57;4.07;;;3.50;;
13208;SDS011;6669;42.678;23.332;2022-12-18T00:26:27;3.97;;;3.33;;
13208;SDS011;6669;42.678;23.332;2022-12-18T00:28:58;3.73;;;3.03;;
13208;SDS011;6669;42.678;23.332;2022-12-18T00:31:31;4.20;;;3.40;;
13208;SDS011;6669;42.678;23.332;2022-12-18T00:33:59;3.07;;;2.70;;
13208;SDS011;6669;42.678;23.332;2022-12-18T00:36:27;5.00;;;3.50;;
13208;SDS011;6669;42.678;23.332;2022-12-18T00:38:58;5.33;;;3.43;;
13208;SDS011;6669;42.678;23.332;2022-12-18T00:41:26;4.43;;;3.30;;
13208;SDS011;6669;42.678;23.332;2022-12-18T00:44:15;4.80;;;3.33;;
13208;SDS011;6669;42.678;23.332;2022-12-18T00:46:44;3.60;;;3.20;;
13208;SDS011;6669;42.678;23.332;2022-12-18T00:49:13;3.77;;;2.40;;
13208;SDS011;6669;42.678;23.332;2022-12-18T00:51:42;4.30;;;2.63;;
13208;SDS011;6669;42.678;23.332;2022-12-18T00:54:10;3.30;;;2.70;;
13208;SDS011;6669;42.678;23.332;2022-12-18T00:56:41;2.53;;;2.27;;
13208;SDS011;6669;42.678;23.332;2022-12-18T00:59:18;2.73;;;2.37;;
13208;SDS011;6669;42.678;23.332;2022-12-18T01:01:46;3.90;;;2.80;;
13208;SDS011;6669;42.678;23.332;2022-12-18T01:04:15;2.93;;;2.63;;
13208;SDS011;6669;42.678;23.332;2022-12-18T01:06:43;4.17;;;3.13;;
13208;SDS011;6669;42.678;23.332;2022-12-18T01:09:11;4.63;;;4.13;;
13208;SDS011;6669;42.678;23.332;2022-12-18T01:11:39;3.87;;;3.00;;
13208;SDS011;6669;42.678;23.332;2022-12-18T01:14:07;4.03;;;3.40;;
13208;SDS011;6669;42.678;23.332;2022-12-18T01:16:37;4.47;;;3.33;;
13208;SDS011;6669;42.678;23.332;2022-12-18T01:19:05;4.17;;;3.07;;
13208;SDS011;6669;42.678;23.332;2022-12-18T01:21:34;3.23;;;2.63;;
13208;SDS011;6669;42.678;23.332;2022-12-18T01:24:02;3.13;;;2.67;;
13208;SDS011;6669;42.678;23.332;2022-12-18T01:26:30;4.33;;;3.43;;
13208;SDS011;6669;42.678;23.332;2022-12-18T01:28:58;3.53;;;2.77;;
13208;SDS011;6669;42.678;23.332;2022-12-18T01:31:27;4.10;;;3.67;;
13208;SDS011;6669;42.678;23.332;2022-12-18T01:33:57;5.63;;;3.50;;
13208;SDS011;6669;42.678;23.332;2022-12-18T01:36:29;3.80;;;3.43;;
13208;SDS011;6669;42.678;23.332;2022-12-18T01:38:59;4.70;;;3.63;;
13208;SDS011;6669;42.678;23.332;2022-12-18T01:41:29;3.33;;;3.00;;
13208;SDS011;6669;42.678;23.332;2022-12-18T01:47:21;5.00;;;3.57;;
13208;SDS011;6669;42.678;23.332;2022-12-18T01:49:53;3.40;;;3.10;;
13208;SDS011;6669;42.678;23.332;2022-12-18T01:52:23;5.13;;;3.63;;
13208;SDS011;6669;42.678;23.332;2022-12-18T01:54:53;4.17;;;3.20;;
13208;SDS011;6669;42.678;23.332;2022-12-18T01:57:23;3.30;;;2.60;;
13208;SDS011;6669;42.678;23.332;2022-12-18T01:59:52;3.87;;;2.90;;
13208;SDS011;6669;42.678;23.332;2022-12-18T02:02:24;3.77;;;3.20;;
13208;SDS011;6669;42.678;23.332;2022-12-18T02:04:56;4.47;;;3.27;;
13208;SDS011;6669;42.678;23.332;2022-12-18T02:07:29;3.80;;;3.40;;
13208;SDS011;6669;42.678;23.332;2022-12-18T02:10:06;5.17;;;3.60;;
13208;SDS011;6669;42.678;23.332;2022-12-18T02:12:43;4.57;;;3.40;;
13208;SDS011;6669;42.678;23.332;2022-12-18T02:15:18;5.03;;;3.73;;
13208;SDS011;6669;42.678;23.332;2022-12-18T02:17:52;3.97;;;3.50;;
13208;SDS011;6669;42.678;23.332;2022-12-18T02:20:27;4.77;;;3.20;;
13208;SDS011;6669;42.678;23.332;2022-12-18T02:23:05;3.70;;;3.30;;
13208;SDS011;6669;42.678;23.332;2022-12-18T02:25:42;3.43;;;3.13;;
13208;SDS011;6669;42.678;23.332;2022-12-18T02:28:28;2.77;;;2.23;;
13208;SDS011;6669;42.678;23.332;2022-12-18T02:30:59;3.53;;;3.13;;
13208;SDS011;6669;42.678;23.332;2022-12-18T02:33:32;3.27;;;2.97;;
13208;SDS011;6669;42.678;23.332;2022-12-18T02:36:03;4.73;;;3.53;;
13208;SDS011;6669;42.678;23.332;2022-12-18T02:38:32;3.90;;;3.30;;
13208;SDS011;6669;42.678;23.332;2022-12-18T02:41:03;5.60;;;4.10;;
13208;SDS011;6669;42.678;23.332;2022-12-18T02:43:33;3.70;;;3.17;;
13208;SDS011;6669;42.678;23.332;2022-12-18T02:46:01;4.63;;;3.50;;
13208;SDS011;6669;42.678;23.332;2022-12-18T02:49:01;3.30;;;2.47;;
13208;SDS011;6669;42.678;23.332;2022-12-18T02:51:41;3.93;;;2.73;;
13208;SDS011;6669;42.678;23.332;2022-12-18T02:54:18;3.13;;;2.80;;
13208;SDS011;6669;42.678;23.332;2022-12-18T02:56:55;3.97;;;3.17;;
13208;SDS011;6669;42.678;23.332;2022-12-18T02:59:29;3.07;;;2.40;;
13208;SDS011;6669;42.678;23.332;2022-12-18T03:02:06;4.20;;;3.30;;
13208;SDS011;6669;42.678;23.332;2022-12-18T03:04:43;4.20;;;3.20;;
13208;SDS011;6669;42.678;23.332;2022-12-18T03:07:18;4.87;;;4.13;;
13208;SDS011;6669;42.678;23.332;2022-12-18T03:09:51;3.17;;;2.73;;
13208;SDS011;6669;42.678;23.332;2022-12-18T03:12:22;3.60;;;2.90;;
13208;SDS011;6669;42.678;23.332;2022-12-18T03:14:59;3.10;;;2.80;;
13208;SDS011;6669;42.678;23.332;2022-12-18T03:17:32;4.73;;;3.77;;
13208;SDS011;6669;42.678;23.332;2022-12-18T03:20:02;3.57;;;2.93;;
13208;SDS011;6669;42.678;23.332;2022-12-18T03:22:35;4.57;;;3.20;;
13208;SDS011;6669;42.678;23.332;2022-12-18T03:25:06;3.33;;;2.90;;
13208;SDS011;6669;42.678;23.332;2022-12-18T03:27:40;3.60;;;3.03;;
13208;SDS011;6669;42.678;23.332;2022-12-18T03:30:14;4.20;;;2.83;;
13208;SDS011;6669;42.678;23.332;2022-12-18T03:32:44;4.33;;;3.43;;
13208;SDS011;6669;42.678;23.332;2022-12-18T03:35:16;4.03;;;3.50;;
13208;SDS011;6669;42.678;23.332;2022-12-18T03:37:48;3.80;;;3.20;;
13208;SDS011;6669;42.678;23.332;2022-12-18T03:40:17;4.13;;;3.07;;
13208;SDS011;6669;42.678;23.332;2022-12-18T03:42:51;4.17;;;3.50;;
13208;SDS011;6669;42.678;23.332;2022-12-18T03:45:26;5.20;;;3.40;;
13208;SDS011;6669;42.678;23.332;2022-12-18T03:48:01;5.60;;;3.57;;
13208;SDS011;6669;42.678;23.332;2022-12-18T03:50:35;3.27;;;2.90;;
13208;SDS011;6669;42.678;23.332;2022-12-18T03:53:14;3.73;;;3.20;;
13208;SDS011;6669;42.678;23.332;2022-12-18T03:55:50;3.53;;;2.93;;
13208;SDS011;6669;42.678;23.332;2022-12-18T03:58:22;3.77;;;3.07;;
13208;SDS011;6669;42.678;23.332;2022-12-18T04:00:52;3.37;;;3.07;;
13208;SDS011;6669;42.678;23.332;2022-12-18T04:03:23;4.43;;;2.80;;
13208;SDS011;6669;42.678;23.332;2022-12-18T04:05:54;4.23;;;3.33;;
13208;SDS011;6669;42.678;23.332;2022-12-18T04:08:23;3.93;;;3.20;;
13208;SDS011;6669;42.678;23.332;2022-12-18T04:10:52;4.70;;;3.37;;
13208;SDS011;6669;42.678;23.332;2022-12-18T04:13:27;4.90;;;3.53;;
13208;SDS011;6669;42.678;23.332;2022-12-18T04:15:56;3.70;;;2.90;;
13208;SDS011;6669;42.678;23.332;2022-12-18T04:18:24;3.30;;;3.00;;
13208;SDS011;6669;42.678;23.332;2022-12-18T04:20:52;4.83;;;3.47;;
13208;SDS011;6669;42.678;23.332;2022-12-18T04:23:21;4.73;;;3.90;;
13208;SDS011;6669;42.678;23.332;2022-12-18T04:25:49;3.40;;;2.73;;
13208;SDS011;6669;42.678;23.332;2022-12-18T04:28:17;4.50;;;3.40;;
13208;SDS011;6669;42.678;23.332;2022-12-18T04:30:46;3.73;;;2.77;;
13208;SDS011;6669;42.678;23.332;2022-12-18T04:33:15;4.70;;;3.43;;
13208;SDS011;6669;42.678;23.332;2022-12-18T04:35:44;3.80;;;3.07;;
13208;SDS011;6669;42.678;23.332;2022-12-18T04:38:12;3.97;;;3.00;;
13208;SDS011;6669;42.678;23.332;2022-12-18T04:40:41;4.63;;;3.47;;
13208;SDS011;6669;42.678;23.332;2022-12-18T04:43:09;3.97;;;3.57;;
13208;SDS011;6669;42.678;23.332;2022-12-18T04:45:37;4.20;;;3.00;;
13208;SDS011;6669;42.678;23.332;2022-12-18T04:48:07;3.50;;;3.00;;
13208;SDS011;6669;42.678;23.332;2022-12-18T04:50:36;4.37;;;3.57;;
13208;SDS011;6669;42.678;23.332;2022-12-18T04:53:04;4.77;;;3.63;;
13208;SDS011;6669;42.678;23.332;2022-12-18T04:55:32;4.50;;;3.40;;
13208;SDS011;6669;42.678;23.332;2022-12-18T04:58:00;5.10;;;3.77;;
13208;SDS011;6669;42.678;23.332;2022-12-18T05:00:28;4.20;;;3.60;;
13208;SDS011;6669;42.678;23.332;2022-12-18T05:02:56;4.93;;;3.67;;
13208;SDS011;6669;42.678;23.332;2022-12-18T05:05:25;6.20;;;4.47;;
13208;SDS011;6669;42.678;23.332;2022-12-18T05:07:54;6.83;;;4.57;;
13208;SDS011;6669;42.678;23.332;2022-12-18T05:10:22;8.10;;;3.97;;
13208;SDS011;6669;42.678;23.332;2022-12-18T05:12:50;5.93;;;3.70;;
13208;SDS011;6669;42.678;23.332;2022-12-18T05:15:28;5.83;;;4.37;;
13208;SDS011;6669;42.678;23.332;2022-12-18T05:17:56;5.60;;;4.20;;
13208;SDS011;6669;42.678;23.332;2022-12-18T05:20:27;7.27;;;4.37;;
13208;SDS011;6669;42.678;23.332;2022-12-18T05:22:55;5.07;;;3.97;;
13208;SDS011;6669;42.678;23.332;2022-12-18T05:25:24;6.27;;;4.37;;
13208;SDS011;6669;42.678;23.332;2022-12-18T05:27:52;6.53;;;5.00;;
13208;SDS011;6669;42.678;23.332;2022-12-18T05:30:20;4.10;;;3.50;;
13208;SDS011;6669;42.678;23.332;2022-12-18T05:32:49;3.87;;;3.30;;
13208;SDS011;6669;42.678;23.332;2022-12-18T05:35:17;6.73;;;4.83;;
13208;SDS011;6669;42.678;23.332;2022-12-18T05:37:46;5.90;;;4.30;;
13208;SDS011;6669;42.678;23.332;2022-12-18T05:40:14;6.90;;;4.80;;
13208;SDS011;6669;42.678;23.332;2022-12-18T05:42:42;6.73;;;4.93;;
13208;SDS011;6669;42.678;23.332;2022-12-18T05:45:10;5.10;;;4.30;;
13208;SDS011;6669;42.678;23.332;2022-12-18T05:47:38;6.43;;;3.90;;
13208;SDS011;6669;42.678;23.332;2022-12-18T05:50:07;5.23;;;4.20;;
13208;SDS011;6669;42.678;23.332;2022-12-18T05:52:40;5.60;;;4.53;;
13208;SDS011;6669;42.678;23.332;2022-12-18T05:55:15;6.43;;;4.27;;
13208;SDS011;6669;42.678;23.332;2022-12-18T05:57:46;8.10;;;4.80;;
13208;SDS011;6669;42.678;23.332;2022-12-18T06:00:16;5.67;;;4.30;;
13208;SDS011;6669;42.678;23.332;2022-12-18T06:02:46;8.47;;;5.00;;
13208;SDS011;6669;42.678;23.332;2022-12-18T06:05:14;7.20;;;4.90;;
13208;SDS011;6669;42.678;23.332;2022-12-18T06:07:46;7.03;;;4.97;;
13208;SDS011;6669;42.678;23.332;2022-12-18T06:10:20;7.87;;;4.10;;
13208;SDS011;6669;42.678;23.332;2022-12-18T06:12:49;6.20;;;3.90;;
13208;SDS011;6669;42.678;23.332;2022-12-18T06:15:17;7.17;;;5.00;;
13208;SDS011;6669;42.678;23.332;2022-12-18T06:17:46;2.27;;;2.07;;
13208;SDS011;6669;42.678;23.332;2022-12-18T06:20:29;7.23;;;5.23;;
13208;SDS011;6669;42.678;23.332;2022-12-18T06:23:07;6.20;;;4.23;;
13208;SDS011;6669;42.678;23.332;2022-12-18T06:28:23;6.20;;;4.67;;
13208;SDS011;6669;42.678;23.332;2022-12-18T06:30:52;5.93;;;4.60;;
13208;SDS011;6669;42.678;23.332;2022-12-18T06:33:34;5.73;;;4.70;;
13208;SDS011;6669;42.678;23.332;2022-12-18T06:36:06;6.30;;;4.23;;
13208;SDS011;6669;42.678;23.332;2022-12-18T06:38:41;6.27;;;4.90;;
13208;SDS011;6669;42.678;23.332;2022-12-18T06:41:13;6.80;;;5.13;;
13208;SDS011;6669;42.678;23.332;2022-12-18T06:43:44;7.13;;;4.37;;
13208;SDS011;6669;42.678;23.332;2022-12-18T06:46:15;5.87;;;4.23;;
13208;SDS011;6669;42.678;23.332;2022-12-18T06:48:46;7.13;;;4.40;;
13208;SDS011;6669;42.678;23.332;2022-12-18T06:51:22;7.63;;;5.13;;
13208;SDS011;6669;42.678;23.332;2022-12-18T06:53:51;6.77;;;5.30;;
13208;SDS011;6669;42.678;23.332;2022-12-18T06:56:21;5.07;;;3.87;;
13208;SDS011;6669;42.678;23.332;2022-12-18T06:59:04;6.67;;;4.63;;
13208;SDS011;6669;42.678;23.332;2022-12-18T07:01:33;6.57;;;4.67;;
13208;SDS011;6669;42.678;23.332;2022-12-18T07:04:13;3.87;;;3.40;;
13208;SDS011;6669;42.678;23.332;2022-12-18T07:06:48;6.13;;;4.57;;
13208;SDS011;6669;42.678;23.332;2022-12-18T07:09:17;6.07;;;4.13;;
13208;SDS011;6669;42.678;23.332;2022-12-18T07:11:47;7.47;;;5.07;;
13208;SDS011;6669;42.678;23.332;2022-12-18T07:14:16;6.03;;;4.90;;
13208;SDS011;6669;42.678;23.332;2022-12-18T07:16:50;6.30;;;5.00;;
13208;SDS011;6669;42.678;23.332;2022-12-18T07:19:19;6.53;;;4.87;;
13208;SDS011;6669;42.678;23.332;2022-12-18T07:22:01;6.77;;;4.50;;
13208;SDS011;6669;42.678;23.332;2022-12-18T07:24:45;7.67;;;4.73;;
13208;SDS011;6669;42.678;23.332;2022-12-18T07:27:29;6.30;;;4.30;;
13208;SDS011;6669;42.678;23.332;2022-12-18T07:29:58;6.33;;;4.40;;
13208;SDS011;6669;42.678;23.332;2022-12-18T07:32:54;6.83;;;5.00;;
13208;SDS011;6669;42.678;23.332;2022-12-18T07:35:23;5.63;;;3.93;;
13208;SDS011;6669;42.678;23.332;2022-12-18T07:37:51;6.10;;;4.17;;
13208;SDS011;6669;42.678;23.332;2022-12-18T07:40:20;6.50;;;4.50;;
13208;SDS011;6669;42.678;23.332;2022-12-18T07:42:52;7.87;;;5.47;;
13208;SDS011;6669;42.678;23.332;2022-12-18T07:45:20;5.50;;;4.17;;
13208;SDS011;6669;42.678;23.332;2022-12-18T07:47:48;8.73;;;6.37;;
13208;SDS011;6669;42.678;23.332;2022-12-18T07:50:17;7.30;;;5.07;;
13208;SDS011;6669;42.678;23.332;2022-12-18T07:52:59;10.20;;;5.77;;
13208;SDS011;6669;42.678;23.332;2022-12-18T07:55:32;5.63;;;4.60;;
13208;SDS011;6669;42.678;23.332;2022-12-18T08:01:26;11.23;;;6.27;;
13208;SDS011;6669;42.678;23.332;2022-12-18T08:03:57;6.93;;;5.17;;
13208;SDS011;6669;42.678;23.332;2022-12-18T08:06:25;8.03;;;5.23;;
13208;SDS011;6669;42.678;23.332;2022-12-18T08:08:56;8.07;;;5.97;;
13208;SDS011;6669;42.678;23.332;2022-12-18T08:11:54;8.03;;;5.63;;
13208;SDS011;6669;42.678;23.332;2022-12-18T08:14:33;9.23;;;5.80;;
13208;SDS011;6669;42.678;23.332;2022-12-18T08:17:06;9.73;;;6.33;;
13208;SDS011;6669;42.678;23.332;2022-12-18T08:19:48;9.37;;;6.13;;
13208;SDS011;6669;42.678;23.332;2022-12-18T08:22:35;10.70;;;6.43;;
13208;SDS011;6669;42.678;23.332;2022-12-18T08:25:32;8.90;;;6.27;;
13208;SDS011;6669;42.678;23.332;2022-12-18T08:28:22;7.30;;;5.80;;
13208;SDS011;6669;42.678;23.332;2022-12-18T08:37:33;10.47;;;7.03;;
13208;SDS011;6669;42.678;23.332;2022-12-18T08:40:29;9.33;;;6.67;;
13208;SDS011;6669;42.678;23.332;2022-12-18T08:43:12;13.37;;;7.87;;
13208;SDS011;6669;42.678;23.332;2022-12-18T08:45:58;23.10;;;9.93;;
13208;SDS011;6669;42.678;23.332;2022-12-18T08:48:55;12.30;;;7.47;;
13208;SDS011;6669;42.678;23.332;2022-12-18T08:55:04;10.53;;;6.80;;
13208;SDS011;6669;42.678;23.332;2022-12-18T08:58:05;6.43;;;4.40;;
13208;SDS011;6669;42.678;23.332;2022-12-18T09:01:01;10.00;;;5.93;;
13208;SDS011;6669;42.678;23.332;2022-12-18T09:03:58;5.63;;;4.00;;
13208;SDS011;6669;42.678;23.332;2022-12-18T09:06:53;7.83;;;5.30;;
13208;SDS011;6669;42.678;23.332;2022-12-18T09:13:18;7.37;;;4.77;;
13208;SDS011;6669;42.678;23.332;2022-12-18T09:15:56;9.00;;;6.07;;
13208;SDS011;6669;42.678;23.332;2022-12-18T09:18:38;5.97;;;4.17;;
13208;SDS011;6669;42.678;23.332;2022-12-18T09:21:09;8.57;;;5.07;;
13208;SDS011;6669;42.678;23.332;2022-12-18T09:23:49;6.97;;;4.37;;
13208;SDS011;6669;42.678;23.332;2022-12-18T09:26:52;9.57;;;6.13;;
13208;SDS011;6669;42.678;23.332;2022-12-18T09:36:47;7.20;;;5.50;;
13208;SDS011;6669;42.678;23.332;2022-12-18T09:39:29;5.73;;;4.33;;
13208;SDS011;6669;42.678;23.332;2022-12-18T09:42:00;8.10;;;5.07;;
13208;SDS011;6669;42.678;23.332;2022-12-18T09:44:43;7.90;;;5.20;;
13208;SDS011;6669;42.678;23.332;2022-12-18T09:47:20;6.50;;;4.77;;
13208;SDS011;6669;42.678;23.332;2022-12-18T09:49:55;8.10;;;5.67;;
13208;SDS011;6669;42.678;23.332;2022-12-18T09:52:32;8.77;;;4.57;;
13208;SDS011;6669;42.678;23.332;2022-12-18T09:55:05;6.20;;;3.90;;
13208;SDS011;6669;42.678;23.332;2022-12-18T09:58:02;5.63;;;4.73;;
13208;SDS011;6669;42.678;23.332;2022-12-18T10:00:56;5.97;;;4.00;;
13208;SDS011;6669;42.678;23.332;2022-12-18T10:03:33;5.57;;;4.67;;
13208;SDS011;6669;42.678;23.332;2022-12-18T10:06:18;6.20;;;4.87;;
13208;SDS011;6669;42.678;23.332;2022-12-18T10:09:12;6.90;;;4.03;;
13208;SDS011;6669;42.678;23.332;2022-12-18T10:11:56;7.93;;;5.30;;
13208;SDS011;6669;42.678;23.332;2022-12-18T10:14:34;7.90;;;5.47;;
13208;SDS011;6669;42.678;23.332;2022-12-18T10:17:26;7.70;;;4.87;;
13208;SDS011;6669;42.678;23.332;2022-12-18T10:20:32;6.80;;;5.00;;
13208;SDS011;6669;42.678;23.332;2022-12-18T10:23:09;6.27;;;4.93;;
13208;SDS011;6669;42.678;23.332;2022-12-18T10:28:40;6.70;;;4.63;;
13208;SDS011;6669;42.678;23.332;2022-12-18T10:31:12;5.50;;;4.00;;
13208;SDS011;6669;42.678;23.332;2022-12-18T10:33:53;9.20;;;5.33;;
13208;SDS011;6669;42.678;23.332;2022-12-18T10:36:23;8.27;;;5.70;;
13208;SDS011;6669;42.678;23.332;2022-12-18T10:38:51;7.50;;;5.17;;
13208;SDS011;6669;42.678;23.332;2022-12-18T10:44:14;7.90;;;4.87;;
13208;SDS011;6669;42.678;23.332;2022-12-18T10:46:46;4.53;;;3.67;;
13208;SDS011;6669;42.678;23.332;2022-12-18T10:49:19;7.80;;;5.23;;
13208;SDS011;6669;42.678;23.332;2022-12-18T10:52:18;7.87;;;5.20;;
13208;SDS011;6669;42.678;23.332;2022-12-18T10:55:18;7.70;;;5.57;;
13208;SDS011;6669;42.678;23.332;2022-12-18T10:58:25;8.73;;;5.63;;
13208;SDS011;6669;42.678;23.332;2022-12-18T11:01:23;4.67;;;4.07;;
13208;SDS011;6669;42.678;23.332;2022-12-18T11:04:00;7.37;;;5.70;;
13208;SDS011;6669;42.678;23.332;2022-12-18T11:07:03;7.63;;;5.10;;
13208;SDS011;6669;42.678;23.332;2022-12-18T11:09:35;6.50;;;5.00;;
13208;SDS011;6669;42.678;23.332;2022-12-18T11:12:06;7.07;;;5.13;;
13208;SDS011;6669;42.678;23.332;2022-12-18T11:14:57;8.33;;;4.83;;
13208;SDS011;6669;42.678;23.332;2022-12-18T11:17:29;9.97;;;4.80;;
13208;SDS011;6669;42.678;23.332;2022-12-18T11:20:02;5.80;;;3.90;;
13208;SDS011;6669;42.678;23.332;2022-12-18T11:22:35;5.87;;;4.87;;
13208;SDS011;6669;42.678;23.332;2022-12-18T11:25:19;7.93;;;4.53;;
13208;SDS011;6669;42.678;23.332;2022-12-18T11:28:02;8.17;;;4.70;;
13208;SDS011;6669;42.678;23.332;2022-12-18T11:30:35;5.97;;;4.37;;
13208;SDS011;6669;42.678;23.332;2022-12-18T11:33:05;8.43;;;4.80;;
13208;SDS011;6669;42.678;23.332;2022-12-18T11:35:39;5.90;;;4.30;;
13208;SDS011;6669;42.678;23.332;2022-12-18T11:38:18;6.60;;;4.37;;
13208;SDS011;6669;42.678;23.332;2022-12-18T11:40:53;9.07;;;5.27;;
13208;SDS011;6669;42.678;23.332;2022-12-18T11:43:27;8.10;;;4.67;;
13208;SDS011;6669;42.678;23.332;2022-12-18T11:46:02;7.90;;;4.80;;
13208;SDS011;6669;42.678;23.332;2022-12-18T11:48:33;8.10;;;5.57;;
13208;SDS011;6669;42.678;23.332;2022-12-18T11:51:09;5.97;;;3.60;;
13208;SDS011;6669;42.678;23.332;2022-12-18T11:53:43;6.93;;;3.90;;
13208;SDS011;6669;42.678;23.332;2022-12-18T11:56:29;6.87;;;4.93;;
13208;SDS011;6669;42.678;23.332;2022-12-18T11:59:04;6.73;;;5.07;;
13208;SDS011;6669;42.678;23.332;2022-12-18T12:01:42;6.27;;;4.57;;
13208;SDS011;6669;42.678;23.332;2022-12-18T12:04:21;6.90;;;4.87;;
13208;SDS011;6669;42.678;23.332;2022-12-18T12:07:19;6.00;;;4.60;;
13208;SDS011;6669;42.678;23.332;2022-12-18T12:10:01;6.57;;;5.13;;
13208;SDS011;6669;42.678;23.332;2022-12-18T12:12:49;6.77;;;5.63;;
13208;SDS011;6669;42.678;23.332;2022-12-18T12:15:34;8.67;;;5.50;;
13208;SDS011;6669;42.678;23.332;2022-12-18T12:18:17;7.50;;;5.10;;
13208;SDS011;6669;42.678;23.332;2022-12-18T12:20:56;8.87;;;5.43;;
13208;SDS011;6669;42.678;23.332;2022-12-18T12:23:33;7.57;;;5.30;;
13208;SDS011;6669;42.678;23.332;2022-12-18T12:26:10;8.90;;;5.03;;
13208;SDS011;6669;42.678;23.332;2022-12-18T12:28:45;7.07;;;4.93;;
13208;SDS011;6669;42.678;23.332;2022-12-18T12:31:24;7.73;;;5.20;;
13208;SDS011;6669;42.678;23.332;2022-12-18T12:34:06;7.83;;;5.27;;
13208;SDS011;6669;42.678;23.332;2022-12-18T12:36:46;7.30;;;4.63;;
13208;SDS011;6669;42.678;23.332;2022-12-18T12:39:28;7.43;;;5.23;;
13208;SDS011;6669;42.678;23.332;2022-12-18T12:42:01;5.60;;;4.17;;
13208;SDS011;6669;42.678;23.332;2022-12-18T12:44:49;8.77;;;6.00;;
13208;SDS011;6669;42.678;23.332;2022-12-18T12:47:26;6.03;;;4.60;;
13208;SDS011;6669;42.678;23.332;2022-12-18T12:50:02;7.13;;;5.33;;
13208;SDS011;6669;42.678;23.332;2022-12-18T12:52:37;8.17;;;6.13;;
13208;SDS011;6669;42.678;23.332;2022-12-18T12:55:14;7.63;;;4.97;;
13208;SDS011;6669;42.678;23.332;2022-12-18T12:57:50;8.90;;;6.23;;
13208;SDS011;6669;42.678;23.332;2022-12-18T13:00:30;7.47;;;4.83;;
13208;SDS011;6669;42.678;23.332;2022-12-18T13:03:19;7.80;;;5.77;;
13208;SDS011;6669;42.678;23.332;2022-12-18T13:06:11;9.43;;;5.67;;
13208;SDS011;6669;42.678;23.332;2022-12-18T13:08:53;8.17;;;5.33;;
13208;SDS011;6669;42.678;23.332;2022-12-18T13:11:36;6.80;;;5.00;;
13208;SDS011;6669;42.678;23.332;2022-12-18T13:14:29;7.80;;;5.20;;
13208;SDS011;6669;42.678;23.332;2022-12-18T13:17:14;8.50;;;6.03;;
13208;SDS011;6669;42.678;23.332;2022-12-18T13:20:11;6.93;;;4.67;;
13208;SDS011;6669;42.678;23.332;2022-12-18T13:22:50;8.67;;;5.27;;
13208;SDS011;6669;42.678;23.332;2022-12-18T13:25:34;10.00;;;6.47;;
13208;SDS011;6669;42.678;23.332;2022-12-18T13:28:07;8.00;;;5.13;;
13208;SDS011;6669;42.678;23.332;2022-12-18T13:30:50;10.03;;;5.60;;
13208;SDS011;6669;42.678;23.332;2022-12-18T13:36:36;9.33;;;6.10;;
13208;SDS011;6669;42.678;23.332;2022-12-18T13:39:20;9.27;;;5.90;;
13208;SDS011;6669;42.678;23.332;2022-12-18T13:48:36;7.67;;;4.97;;
13208;SDS011;6669;42.678;23.332;2022-12-18T13:51:07;8.33;;;5.60;;
13208;SDS011;6669;42.678;23.332;2022-12-18T13:53:42;8.17;;;5.43;;
13208;SDS011;6669;42.678;23.332;2022-12-18T13:56:16;8.27;;;5.67;;
13208;SDS011;6669;42.678;23.332;2022-12-18T13:58:46;6.50;;;4.70;;
13208;SDS011;6669;42.678;23.332;2022-12-18T14:01:34;9.57;;;5.80;;
13208;SDS011;6669;42.678;23.332;2022-12-18T14:04:08;10.33;;;6.00;;
13208;SDS011;6669;42.678;23.332;2022-12-18T14:06:37;8.53;;;5.20;;
13208;SDS011;6669;42.678;23.332;2022-12-18T14:09:08;8.27;;;5.40;;
13208;SDS011;6669;42.678;23.332;2022-12-18T14:11:50;8.73;;;5.53;;
13208;SDS011;6669;42.678;23.332;2022-12-18T14:14:41;9.40;;;5.70;;
13208;SDS011;6669;42.678;23.332;2022-12-18T14:17:13;8.07;;;5.37;;
13208;SDS011;6669;42.678;23.332;2022-12-18T14:19:48;6.50;;;4.87;;
13208;SDS011;6669;42.678;23.332;2022-12-18T14:22:18;6.70;;;5.20;;
13208;SDS011;6669;42.678;23.332;2022-12-18T14:25:05;6.57;;;4.20;;
13208;SDS011;6669;42.678;23.332;2022-12-18T14:27:46;8.73;;;5.57;;
13208;SDS011;6669;42.678;23.332;2022-12-18T14:30:26;7.27;;;5.63;;
13208;SDS011;6669;42.678;23.332;2022-12-18T14:33:00;9.73;;;6.20;;
13208;SDS011;6669;42.678;23.332;2022-12-18T14:35:35;6.93;;;4.87;;
13208;SDS011;6669;42.678;23.332;2022-12-18T14:38:11;7.90;;;5.40;;
13208;SDS011;6669;42.678;23.332;2022-12-18T14:40:51;7.10;;;5.03;;
13208;SDS011;6669;42.678;23.332;2022-12-18T14:43:22;6.70;;;4.73;;
13208;SDS011;6669;42.678;23.332;2022-12-18T14:45:54;7.03;;;4.80;;
13208;SDS011;6669;42.678;23.332;2022-12-18T14:48:32;8.63;;;4.00;;
13208;SDS011;6669;42.678;23.332;2022-12-18T14:51:05;7.53;;;4.83;;
13208;SDS011;6669;42.678;23.332;2022-12-18T14:53:36;7.43;;;4.53;;
13208;SDS011;6669;42.678;23.332;2022-12-18T14:56:15;7.70;;;4.50;;
13208;SDS011;6669;42.678;23.332;2022-12-18T14:58:51;8.90;;;4.50;;
13208;SDS011;6669;42.678;23.332;2022-12-18T15:01:24;8.83;;;5.00;;
13208;SDS011;6669;42.678;23.332;2022-12-18T15:03:56;6.30;;;4.57;;
13208;SDS011;6669;42.678;23.332;2022-12-18T15:06:26;5.73;;;4.37;;
13208;SDS011;6669;42.678;23.332;2022-12-18T15:09:02;8.80;;;5.13;;
13208;SDS011;6669;42.678;23.332;2022-12-18T15:11:34;9.40;;;4.63;;
13208;SDS011;6669;42.678;23.332;2022-12-18T15:14:29;6.90;;;4.63;;
13208;SDS011;6669;42.678;23.332;2022-12-18T15:17:01;6.53;;;4.80;;
13208;SDS011;6669;42.678;23.332;2022-12-18T15:19:37;11.70;;;5.67;;
13208;SDS011;6669;42.678;23.332;2022-12-18T15:22:17;6.97;;;4.70;;
13208;SDS011;6669;42.678;23.332;2022-12-18T15:24:47;8.40;;;5.40;;
13208;SDS011;6669;42.678;23.332;2022-12-18T15:30:25;6.93;;;4.57;;
13208;SDS011;6669;42.678;23.332;2022-12-18T15:35:55;6.67;;;4.43;;
13208;SDS011;6669;42.678;23.332;2022-12-18T15:38:26;5.93;;;4.07;;
13208;SDS011;6669;42.678;23.332;2022-12-18T15:40:55;4.30;;;3.53;;
13208;SDS011;6669;42.678;23.332;2022-12-18T15:43:25;6.23;;;4.53;;
13208;SDS011;6669;42.678;23.332;2022-12-18T15:46:06;7.10;;;4.63;;
13208;SDS011;6669;42.678;23.332;2022-12-18T15:48:38;8.17;;;5.07;;
13208;SDS011;6669;42.678;23.332;2022-12-18T15:51:11;5.83;;;4.40;;
13208;SDS011;6669;42.678;23.332;2022-12-18T15:53:48;8.60;;;4.57;;
13208;SDS011;6669;42.678;23.332;2022-12-18T15:56:22;7.07;;;4.73;;
13208;SDS011;6669;42.678;23.332;2022-12-18T15:59:13;6.73;;;4.90;;
13208;SDS011;6669;42.678;23.332;2022-12-18T16:01:53;6.47;;;4.73;;
13208;SDS011;6669;42.678;23.332;2022-12-18T16:04:28;6.40;;;4.60;;
13208;SDS011;6669;42.678;23.332;2022-12-18T16:07:23;15.80;;;8.57;;
13208;SDS011;6669;42.678;23.332;2022-12-18T16:10:07;9.07;;;5.73;;
13208;SDS011;6669;42.678;23.332;2022-12-18T16:12:36;6.13;;;4.50;;
13208;SDS011;6669;42.678;23.332;2022-12-18T16:15:05;8.07;;;5.37;;
13208;SDS011;6669;42.678;23.332;2022-12-18T16:20:36;9.30;;;5.73;;
13208;SDS011;6669;42.678;23.332;2022-12-18T16:23:08;9.67;;;6.00;;
13208;SDS011;6669;42.678;23.332;2022-12-18T16:25:50;7.77;;;5.53;;
13208;SDS011;6669;42.678;23.332;2022-12-18T16:28:20;10.63;;;5.60;;
13208;SDS011;6669;42.678;23.332;2022-12-18T16:30:48;7.37;;;5.30;;
13208;SDS011;6669;42.678;23.332;2022-12-18T16:33:18;10.27;;;5.57;;